x

8452951 - Potter Cove, Prudence Island, Ri (ptcr1) Weather Station

7:54pm - Sun 19th Feb 2017 All times are EST. -5 hours from GMT.

  • Wind
    6mph, 13mph gusts
  • 空気 Temp 51°f
  • Sea Pressure 1011.8mb
  • 8452951 - Potter Cove, Prudence Island, Ri
  • 8452951 - Potter Cove, Prudence Island, Ri

More Historic Weather Station data

Upgrade to MSW Pro to gain access to the past 30 days of data for over 8000 Wavebouys and Weather Stations around the globe.

Join Pro

Comparision Forecast

View Surf forecast
   
Sun 02/19 7:54pm 6 13 mph 1011.8mb 51f
7:48pm 6 9 mph 1011.7mb 51f
7:42pm 5 8 mph 1011.7mb 51f
7:36pm 5 10 mph 1011.7mb 50f
7:30pm 5 8 mph 1011.6mb 50f
7:24pm 5 11 mph 1011.5mb 51f
7:18pm 5 10 mph 1011.4mb 51f
7:12pm 5 8 mph 1011.2mb 51f
7:06pm 6 13 mph 1011.1mb 52f
7:00pm 6 10 mph 1011.1mb 52f
6:54pm 7 10 mph 1011.1mb 52f
6:48pm 6 11 mph - -
6:42pm 6 9 mph 1010.9mb 52f
6:36pm 6 10 mph 1010.8mb 52f
6:30pm 5 8 mph 1010.7mb 53f
6:24pm 6 9 mph 1010.6mb 53f
6:18pm 7 13 mph 1010.5mb 54f
6:12pm 8 15 mph 1010.3mb 54f
6:06pm 8 16 mph 1010.2mb 54f
6:00pm 11 17 mph 1010.1mb 55f
5:54pm 13 20 mph 1009.9mb 55f
5:48pm 10 18 mph 1009.8mb -
5:42pm 11 23 mph 1009.7mb 56f
5:36pm 13 18 mph 1009.6mb 56f
5:30pm 11 22 mph 1009.5mb 57f
5:24pm 6 17 mph 1009.3mb 57f
5:18pm 6 11 mph 1009.2mb 56f
5:12pm 6 14 mph 1009.1mb 57f
5:06pm 8 13 mph 1008.9mb 58f
5:00pm 7 10 mph 1008.6mb 58f
4:54pm 7 11 mph 1008.4mb 58f
4:48pm 9 18 mph 1008.3mb 59f
4:42pm 10 16 mph 1008.2mb 60f
4:36pm 10 15 mph 1008.1mb 60f
4:30pm 9 16 mph 1008mb 60f
4:24pm 9 18 mph 1007.9mb 60f
4:18pm 8 15 mph 1007.8mb 60f
4:12pm 10 17 mph 1007.6mb 59f
4:06pm 10 17 mph 1007.4mb 60f
4:00pm 9 14 mph 1007.3mb 60f
3:54pm 11 17 mph 1007.2mb 61f
3:48pm 8 13 mph 1007.1mb 61f
3:42pm 8 13 mph 1007.1mb 59f
3:36pm 7 10 mph 1007mb 59f
3:30pm 10 20 mph 1007.1mb 60f
3:24pm 8 14 mph 1007mb 61f
3:18pm 10 17 mph 1007mb 60f
3:12pm 9 17 mph 1007mb 61f
3:06pm 11 17 mph 1007mb 60f
3:00pm 9 15 mph 1006.9mb 60f
2:54pm 10 21 mph 1006.8mb 61f
2:48pm 10 18 mph - -
2:42pm 9 15 mph 1006.7mb 61f
2:36pm 9 14 mph 1006.8mb 62f
2:30pm 9 15 mph 1006.8mb 61f
2:24pm 8 13 mph 1006.7mb 61f
2:18pm 8 16 mph 1006.7mb 61f
2:12pm 7 14 mph 1006.7mb 61f
2:06pm 8 18 mph 1006.8mb 61f
2:00pm 8 11 mph 1006.9mb 61f
1:54pm 5 8 mph 1006.8mb 60f
1:48pm 6 11 mph 1006.8mb 61f
1:42pm 5 6 mph 1006.8mb 61f
1:36pm 2 5 mph 1006.7mb 62f
1:30pm 6 8 mph 1006.8mb 61f
1:24pm 3 6 mph 1006.7mb 60f
1:18pm 5 7 mph 1006.8mb 58f
1:12pm 6 10 mph 1006.8mb 59f
1:06pm 6 9 mph 1006.9mb 60f
1:00pm 5 9 mph 1007mb 62f
12:54pm 8 14 mph 1007mb 62f
12:48pm 7 14 mph 1007mb 60f
12:42pm 8 14 mph 1006.9mb 61f
12:36pm 6 10 mph 1007mb 60f
12:30pm 6 9 mph 1007mb 59f
12:24pm 7 11 mph 1007.1mb 59f
12:18pm 6 9 mph 1007.2mb 58f
12:12pm 7 10 mph 1007.3mb 57f
12:06pm 7 14 mph 1007.3mb 57f
12:00pm 8 15 mph 1007.3mb 58f
11:54am 7 11 mph 1007.3mb 57f
11:48am 9 14 mph 1007.3mb 57f
11:42am 8 13 mph 1007.5mb 57f
11:36am 7 11 mph 1007.6mb 58f
11:30am 7 10 mph 1007.6mb 56f
11:24am 5 8 mph 1007.7mb 55f
11:18am 6 9 mph 1007.7mb 55f
11:12am 6 8 mph 1007.8mb 55f
11:06am 7 10 mph 1007.9mb 56f
11:00am 7 11 mph 1007.9mb 56f
10:54am 6 11 mph 1007.9mb 56f
10:48am 7 10 mph 1007.9mb 57f
10:42am 6 10 mph 1007.9mb 56f
10:36am 6 11 mph 1007.8mb 55f
10:30am 7 13 mph 1007.8mb 55f
10:24am 5 9 mph 1007.7mb 54f
10:18am 7 13 mph - -
10:12am 7 13 mph 1007.6mb 54f
10:06am 7 13 mph 1007.5mb 54f
10:00am 7 13 mph 1007.5mb 55f
9:54am 7 13 mph 1007.4mb 56f
9:48am 8 14 mph 1007.3mb 55f
9:42am 7 15 mph 1007.3mb 55f
9:36am 8 15 mph 1007.3mb 55f
9:30am 9 14 mph 1007.2mb 56f
9:24am 9 15 mph 1007.1mb 55f
9:18am 8 17 mph 1007.1mb 55f
9:12am 8 14 mph 1007.1mb 55f
9:06am 7 14 mph 1007mb 55f
9:00am 8 17 mph 1007mb 54f
8:54am 9 16 mph 1006.8mb 55f
8:48am 8 16 mph 1006.8mb 53f
8:42am 6 13 mph 1006.8mb 53f
8:36am 8 14 mph 1006.8mb 54f
8:30am 6 9 mph 1006.8mb 54f
8:24am 6 9 mph 1006.7mb 53f
8:18am 7 11 mph 1006.7mb 53f
8:12am 5 8 mph 1006.6mb 53f
8:06am 3 7 mph 1006.6mb 53f
8:00am 6 11 mph 1006.6mb 52f
7:54am 5 7 mph 1006.6mb 52f
7:48am 6 11 mph 1006.5mb 51f
7:42am 6 9 mph 1006.5mb 51f
7:36am 5 7 mph 1006.5mb 50f
7:30am 6 10 mph 1006.5mb 50f
7:24am 6 10 mph 1006.5mb 49f
7:18am 6 8 mph 1006.5mb 48f
7:12am 6 11 mph 1006.5mb 48f
7:06am 6 10 mph 1006.4mb 48f
7:00am 6 10 mph 1006.4mb 47f
6:54am 6 9 mph 1006.4mb 46f
6:48am 6 8 mph 1006.4mb 45f
6:42am 7 9 mph 1006.3mb 44f
6:36am 7 10 mph 1006.2mb 45f
6:30am 7 13 mph 1006.2mb 45f
6:24am 6 8 mph 1006.2mb 44f
6:18am 6 8 mph 1006.2mb 44f
6:12am 6 9 mph 1006.2mb 45f
6:06am 7 11 mph 1006.1mb 45f
6:00am 7 11 mph 1006mb 46f
5:54am 9 13 mph 1005.9mb 46f
5:48am 9 13 mph - -
5:42am 9 15 mph 1005.8mb 47f
5:36am 8 13 mph 1005.7mb 47f
5:30am 8 14 mph 1005.7mb 47f
5:24am 10 15 mph 1005.6mb 46f
5:18am 10 14 mph 1005.5mb 46f
5:12am 9 14 mph 1005.4mb 47f
5:06am 10 13 mph 1005.4mb 46f
5:00am 9 14 mph 1005.3mb 46f
4:54am 9 14 mph 1005.3mb 46f
4:48am 9 14 mph 1005.2mb 46f
4:42am 8 11 mph 1005.1mb 46f
4:36am 10 14 mph 1005mb 47f
4:30am 8 11 mph 1004.9mb 47f
4:24am 10 14 mph 1004.9mb 46f
4:18am 9 13 mph 1004.7mb 46f
4:12am 9 13 mph 1004.7mb 45f
4:06am 8 11 mph 1004.6mb 45f
4:00am 9 11 mph 1004.6mb 45f
3:54am 8 13 mph 1004.5mb 45f
3:48am 8 11 mph 1004.3mb 45f
3:42am 9 13 mph 1004.2mb 45f
3:36am 9 13 mph 1004.2mb 45f
3:30am 8 13 mph 1004.2mb 44f
3:24am 8 13 mph 1004mb 44f
3:18am 8 11 mph 1003.9mb 45f
3:12am 9 13 mph 1003.8mb 45f
3:06am 8 11 mph 1003.7mb 44f
3:00am 7 10 mph 1003.6mb 44f
2:54am 6 8 mph 1003.6mb 43f
2:48am 8 10 mph - -
2:42am 8 11 mph 1003.4mb 44f
2:36am 9 14 mph 1003.3mb 44f
2:30am 8 11 mph 1003.2mb 44f
2:24am 8 11 mph 1003.2mb 43f
2:18am 8 11 mph 1003.2mb 43f
2:12am 8 11 mph 1003.2mb 44f
2:06am 8 11 mph 1003.2mb 44f
2:00am 8 11 mph 1003.1mb 43f
1:54am 8 11 mph 1003mb 43f
1:48am 8 11 mph 1002.9mb 44f
1:42am 8 11 mph 1002.9mb 44f
1:36am 8 10 mph 1002.9mb 44f
1:30am 8 10 mph 1002.9mb 44f
1:24am 8 10 mph 1002.9mb 44f
1:18am 8 11 mph 1002.8mb 43f
1:12am 8 11 mph 1002.8mb 43f
1:06am 8 10 mph 1002.8mb 44f
1:00am 8 10 mph 1002.8mb 43f
12:54am 7 10 mph 1002.7mb 43f
12:48am 7 10 mph 1002.7mb 43f
12:42am 7 10 mph 1002.8mb 43f
12:36am 7 9 mph 1002.8mb 43f
12:30am 7 10 mph 1002.7mb 43f
12:24am 7 10 mph 1002.7mb 43f
12:18am 7 10 mph 1002.7mb 44f
12:12am 7 13 mph 1002.7mb 44f
12:06am 7 10 mph 1002.6mb 44f
12:00am 7 13 mph 1002.7mb 44f
Sat 02/18 11:54pm 7 13 mph 1002.6mb 44f
11:48pm 7 11 mph 1002.7mb 44f
11:42pm 7 11 mph 1002.7mb 44f
11:36pm 7 11 mph 1002.6mb 44f
11:30pm 7 14 mph 1002.7mb 45f
11:24pm 7 9 mph 1002.7mb 45f
11:18pm 7 10 mph 1002.7mb 45f
11:12pm 6 10 mph 1002.7mb 45f
11:06pm 6 10 mph 1002.8mb 45f
11:00pm 6 10 mph 1002.7mb 44f
10:54pm 7 11 mph 1002.7mb 44f
10:48pm 8 13 mph 1002.7mb 44f
10:42pm 7 10 mph 1002.7mb 44f
10:36pm 6 10 mph 1002.7mb 44f
10:30pm 7 11 mph 1002.9mb 44f
10:24pm 7 11 mph 1002.9mb 44f
10:18pm 8 11 mph 1003mb 44f
10:12pm 8 13 mph 1002.9mb 44f
10:06pm 8 14 mph 1003mb 44f
10:00pm 8 13 mph 1003mb 44f
9:54pm 8 14 mph 1003mb 44f
9:48pm 8 13 mph 1003.1mb 44f
9:42pm 8 14 mph 1003.1mb 44f
9:36pm 7 13 mph 1003.1mb 43f
9:30pm 7 10 mph 1003.1mb 43f
9:24pm 7 14 mph 1003.2mb 42f
9:18pm 7 9 mph 1003.2mb 42f
9:12pm 8 13 mph 1003.2mb 42f
9:06pm 7 10 mph 1003.2mb 41f
9:00pm 9 14 mph 1003.3mb 42f
8:54pm 9 16 mph 1003.3mb 43f
8:48pm 8 11 mph - -
8:42pm 9 14 mph 1003.3mb 43f
8:36pm 8 13 mph 1003.4mb 42f
8:30pm 8 13 mph 1003.4mb 42f
8:24pm 8 11 mph 1003.4mb 42f
8:18pm 8 14 mph 1003.5mb 43f
8:12pm 8 11 mph 1003.5mb 42f
8:06pm 7 10 mph 1003.5mb 41f
8:00pm 8 13 mph 1003.6mb 41f
7:54pm 9 14 mph 1003.6mb 43f
7:48pm 9 13 mph 1003.5mb 43f
7:42pm 10 15 mph 1003.5mb 43f
7:36pm 9 13 mph 1003.6mb 43f
7:30pm 9 14 mph 1003.6mb 43f
7:24pm 9 14 mph 1003.6mb 43f
7:18pm 10 15 mph - -
7:12pm 11 16 mph 1003.6mb 44f
7:06pm 11 17 mph 1003.5mb 44f
7:00pm 10 16 mph 1003.6mb 44f
6:54pm 10 15 mph 1003.4mb 44f
6:48pm 8 11 mph 1003.4mb 44f
6:42pm 10 15 mph 1003.3mb 43f
6:36pm 9 14 mph 1003.6mb 44f
6:30pm 10 15 mph 1003.5mb 43f
6:24pm 10 15 mph 1003.6mb 44f
6:18pm 10 17 mph 1003.6mb 44f
6:12pm 10 16 mph 1003.6mb 44f
6:06pm 10 16 mph 1003.5mb 44f
6:00pm 11 17 mph 1003.4mb 44f
5:54pm 10 14 mph 1003.5mb 44f
5:48pm 10 14 mph 1003.4mb -
5:42pm 11 16 mph 1003.5mb 43f
5:36pm 9 15 mph 1003.7mb 44f
5:30pm 9 13 mph 1003.8mb 44f
5:24pm 10 17 mph 1003.8mb 44f
5:18pm 10 16 mph 1004mb 44f
5:12pm 9 16 mph 1003.9mb 44f
5:06pm 10 15 mph 1003.8mb 44f
5:00pm 10 16 mph 1003.9mb 44f
4:54pm 9 16 mph 1003.9mb 44f
4:48pm 10 15 mph 1004mb -
4:42pm 9 14 mph 1004.2mb 45f
4:36pm 8 11 mph 1004.2mb 44f
4:30pm 10 16 mph 1004.1mb 44f
4:24pm 11 17 mph 1003.9mb 44f
4:18pm 11 17 mph 1003.8mb 44f
4:12pm 10 16 mph 1003.7mb 44f
4:06pm 9 16 mph 1003.8mb 45f
4:00pm 10 15 mph 1003.7mb 45f
3:54pm 10 16 mph 1003.9mb 45f
3:48pm 11 17 mph 1003.9mb 46f
3:42pm 9 16 mph 1003.9mb 45f
3:36pm 10 16 mph 1003.9mb 45f
3:30pm 13 20 mph 1003.9mb 46f
3:24pm 14 20 mph 1003.8mb 46f
3:18pm 11 17 mph 1003.9mb 45f
3:12pm 10 16 mph 1003.9mb 46f
3:06pm 11 20 mph 1004mb 46f
3:00pm 13 18 mph 1004.2mb 46f
2:54pm 11 17 mph 1004.1mb 46f
2:48pm 11 18 mph 1004.1mb 46f
2:42pm 11 16 mph 1004.1mb 47f
2:36pm 13 18 mph 1004.3mb 46f
2:30pm 9 13 mph 1004.3mb 46f
2:24pm 10 15 mph 1004.6mb 46f
2:18pm 10 20 mph 1004.6mb 46f
2:12pm 10 15 mph 1004.9mb 46f
2:06pm 10 15 mph 1005mb 46f
2:00pm 10 16 mph 1004.9mb 46f
1:54pm 10 15 mph 1005.1mb 46f
1:48pm 9 14 mph 1005.4mb 46f
1:42pm 11 17 mph 1005.8mb 46f
1:36pm 11 21 mph 1005.9mb 45f
1:30pm 11 20 mph 1006.1mb 46f
1:24pm 11 16 mph 1006mb 46f
1:18pm 11 18 mph 1006mb 45f
1:12pm 11 16 mph 1006.3mb 46f
1:06pm 13 16 mph 1006.5mb 45f
1:00pm 14 22 mph 1006.5mb 45f
12:54pm 13 18 mph 1006.6mb 45f
12:48pm 14 21 mph 1006.7mb 45f
12:42pm 14 22 mph 1006.8mb 45f
12:36pm 14 20 mph 1007mb 45f
12:30pm 14 21 mph 1007.2mb 44f
12:24pm 13 21 mph 1007.1mb 44f
12:18pm 11 18 mph 1007.2mb 44f
12:12pm 11 18 mph 1007.2mb 43f
12:06pm 10 17 mph 1007.3mb 43f
12:00pm 11 17 mph 1007.4mb 44f
11:54am 10 16 mph 1007.7mb 43f
11:48am 11 18 mph 1007.9mb 44f
11:42am 11 18 mph 1008.1mb 44f
11:36am 13 16 mph 1008.3mb 44f
11:30am 11 17 mph 1008.5mb 43f
11:24am 9 16 mph 1008.6mb 43f
11:18am 9 14 mph 1008.7mb 44f
11:12am 8 13 mph 1008.8mb 43f
11:06am 10 16 mph 1008.9mb 43f
11:00am 8 11 mph 1009mb 43f
10:54am 9 16 mph 1009mb 43f
10:48am 10 16 mph - -
10:42am 10 16 mph 1009.1mb 42f
10:36am 6 8 mph 1009.2mb 41f
10:30am 9 13 mph 1009.3mb 41f
10:24am 8 11 mph 1009.5mb 41f
10:18am 6 9 mph 1009.6mb 40f
10:12am 8 13 mph 1009.8mb 40f
10:06am 9 13 mph 1009.9mb 40f
10:00am 8 14 mph 1009.9mb 40f
9:54am 8 11 mph 1010mb 39f
9:48am 8 13 mph 1010.2mb 39f
9:42am 8 14 mph 1010.3mb 38f
9:36am 9 14 mph 1010.4mb 38f
9:30am 8 14 mph 1010.4mb 38f
9:24am 9 13 mph 1010.5mb 38f
9:18am 6 10 mph 1010.6mb 37f
9:12am 7 9 mph 1010.7mb 37f
9:06am 5 7 mph 1010.8mb 37f
9:00am 3 6 mph 1010.9mb 36f
8:54am 3 7 mph 1011mb 36f
8:48am 6 8 mph - -
8:42am 6 8 mph 1011mb 35f
8:36am 7 9 mph 1010.9mb 35f
8:30am 7 10 mph 1011.2mb 34f
8:24am 8 11 mph 1011.3mb 34f
8:18am 7 11 mph 1011.2mb 34f
8:12am 9 13 mph 1011.4mb 34f
8:06am 6 8 mph 1011.3mb 33f
8:00am 6 8 mph 1011.3mb 33f
7:54am 7 9 mph 1011.4mb 33f
7:48am 6 8 mph - -
7:42am 5 8 mph 1011.4mb 31f
7:36am 6 8 mph 1011.5mb 31f
7:30am 7 9 mph 1011.8mb 30f
7:24am 6 9 mph 1011.7mb 30f
7:18am 7 10 mph 1011.6mb 31f
7:12am 8 13 mph 1011.7mb 31f
7:06am 7 9 mph 1011.7mb 30f
7:00am 7 10 mph 1011.6mb 30f
6:54am 7 9 mph 1011.5mb 30f
6:48am 5 7 mph 1011.5mb 30f
6:42am 6 8 mph 1011.3mb 30f
6:36am 5 7 mph 1011.2mb 29f
6:30am 5 6 mph 1011.1mb 29f
6:24am 7 9 mph 1011.3mb 29f
6:18am 7 9 mph 1011.5mb 29f
6:12am 6 8 mph 1011.4mb 30f
6:06am 7 10 mph 1011.4mb 30f
6:00am 6 9 mph 1011.4mb 30f
5:54am 6 9 mph 1011.3mb 30f
5:48am 6 8 mph 1011.3mb 30f
5:42am 6 7 mph 1011.3mb 30f
5:36am 6 9 mph 1011.2mb 30f
5:30am 7 10 mph 1011.3mb 30f
5:24am 7 11 mph 1011.4mb 30f
5:18am 7 10 mph 1011.4mb 30f
5:12am 6 7 mph 1011.5mb 30f
5:06am 5 6 mph 1011.4mb 30f
5:00am 3 5 mph 1011.2mb 30f
4:54am 2 3 mph 1011.3mb 30f
4:48am 3 5 mph - -
4:42am 3 5 mph 1011.3mb 30f
4:36am 1 2 mph 1011.2mb 30f
4:30am 3
mph
1011.2mb 29f
4:24am 3
mph
1011.3mb 30f
4:18am 2 3 mph 1011.5mb 29f
4:12am 2 3 mph 1011.4mb 30f
4:06am 3 6 mph 1011.3mb 30f
4:00am 2 3 mph 1011.6mb 29f
3:54am 1
mph
1011.5mb 30f
3:48am 2
mph
1011.3mb 30f
3:42am 2
mph
1011.5mb 30f
3:36am 2 3 mph 1011.5mb 30f
3:30am  -  1 mph 1011.6mb 30f
3:24am  -  1 mph 1011.7mb 30f
3:18am  -  mph - -
3:12am 2
mph
1011.9mb 30f
3:06am 3 6 mph 1012mb 30f
3:00am 2 3 mph 1012.1mb 30f
2:54am 2 3 mph 1011.9mb 30f
2:48am 2 6 mph - -
2:42am 2 3 mph 1012mb 29f
2:36am 2 3 mph 1011.9mb 30f
2:30am 3 5 mph 1011.9mb 29f
2:24am 5 7 mph 1012mb 29f
2:18am 5 6 mph 1012mb 29f
2:12am 5 6 mph 1012mb 30f
2:06am 5 6 mph 1011.8mb 29f
2:00am 3 5 mph 1011.8mb 30f
1:54am 2
mph
1011.8mb 30f
1:48am 3 5 mph 1011.8mb 29f
1:42am 3 6 mph 1012mb -
1:36am 2 5 mph 1012mb -
1:30am 5 7 mph 1011.9mb 30f
1:24am 5 7 mph 1011.9mb 30f
1:18am 5 8 mph - -
1:12am 5 6 mph 1011.7mb 30f
1:06am 5 6 mph 1011.6mb 30f
1:00am 3 5 mph 1011.5mb 30f
12:54am 3 6 mph 1011.4mb 30f
12:48am 5 7 mph 1011.4mb 30f
12:42am 3 5 mph 1011.5mb 30f
12:36am 2 5 mph 1011.3mb 30f
12:30am 3 5 mph 1011.4mb 30f
12:24am 5 7 mph 1011.3mb 30f
12:18am 3 6 mph 1011.3mb 30f
12:12am 5 7 mph 1011.3mb 30f
12:06am 3 7 mph 1011.2mb 30f
12:00am 5 8 mph 1011.1mb 31f
Fri 02/17 11:54pm 5 7 mph 1011.2mb 31f
11:48pm 3 7 mph 1011.1mb 31f
11:42pm 5 7 mph 1011.1mb 31f
11:36pm 5 8 mph 1011mb 31f
11:30pm 3 6 mph 1010.9mb 31f
11:24pm 5 7 mph 1010.8mb 31f
11:18pm 5 8 mph 1010.8mb 31f
11:12pm 5 7 mph 1010.7mb 31f
11:06pm 5 8 mph 1010.7mb 31f
11:00pm 5 8 mph 1010.7mb 31f
10:54pm 3 7 mph 1010.7mb 31f
10:48pm 5 8 mph - -
10:42pm 6 8 mph 1010.6mb 31f
10:36pm 6 9 mph 1010.5mb 31f
10:30pm 6 9 mph 1010.5mb 31f
10:24pm 6 9 mph 1010.6mb 31f
10:18pm 6 10 mph 1010.6mb 31f
10:12pm 6 10 mph 1010.6mb 31f
10:06pm 5 8 mph 1010.6mb 31f
10:00pm 3 6 mph 1010.7mb 31f
9:54pm 3 5 mph 1010.7mb 31f
9:48pm 5 8 mph 1010.5mb 31f
9:42pm 5 8 mph 1010.3mb 32f
9:36pm 3 7 mph 1010.2mb 32f
9:30pm 5 9 mph 1010.1mb 32f
9:24pm 5 8 mph 1009.9mb 32f
9:18pm 6 8 mph - -
9:12pm 6 9 mph 1009.9mb 32f
9:06pm 6 11 mph 1009.9mb 33f
9:00pm 5 7 mph 1010mb 32f
8:54pm 5 7 mph 1010mb 33f
8:48pm 5 7 mph 1010mb 33f
8:42pm 5 7 mph 1010.1mb 33f
8:36pm 5 8 mph 1010.1mb 33f
8:30pm 6 9 mph 1010.1mb 33f
8:24pm 5 7 mph 1010mb 33f
8:18pm 6 9 mph 1009.9mb 33f
8:12pm 6 10 mph 1010mb 34f
8:06pm 6 9 mph 1009.9mb 34f
8:00pm 5 9 mph 1009.9mb -
7:54pm 7 13 mph 1009.8mb 34f
7:48pm 8 11 mph 1009.7mb 35f
7:42pm 7 10 mph 1009.6mb 35f
7:36pm 6 7 mph 1009.5mb 35f
7:30pm 6 10 mph 1009.4mb 35f
7:24pm 7 10 mph 1009.3mb 35f
7:18pm 6 10 mph - -
7:12pm 7 10 mph 1009.2mb 35f
7:06pm 6 10 mph 1009.1mb 35f
7:00pm 6 8 mph 1009mb 36f
6:54pm 6 9 mph 1008.9mb 35f
6:48pm 6 9 mph 1008.8mb 36f
6:42pm 6 10 mph 1008.8mb 36f
6:36pm 7 14 mph 1008.8mb 36f
6:30pm 6 11 mph 1008.7mb 37f
6:24pm 6 10 mph 1008.5mb 36f
6:18pm 6 10 mph 1008.5mb 36f
6:12pm 6 13 mph 1008.5mb 37f
6:06pm 6 9 mph 1008.5mb 37f
6:00pm 6 11 mph 1008.4mb -
5:54pm 7 13 mph 1008.2mb 37f
5:48pm 8 17 mph - -
5:42pm 8 16 mph 1008.1mb 38f
5:36pm 6 16 mph 1008.1mb 38f
5:30pm 5 8 mph 1008mb 38f
5:24pm 5 10 mph 1008mb 38f
5:18pm 6 11 mph 1007.8mb 38f
5:12pm 6 10 mph 1007.7mb 38f
5:06pm 5 13 mph 1007.6mb 39f
5:00pm 6 10 mph 1007.5mb 39f
4:54pm 6 11 mph 1007.4mb 39f
4:48pm 8 17 mph 1007.2mb 40f
4:42pm 6 10 mph 1007.1mb 40f
4:36pm 6 14 mph 1007mb 40f
4:30pm 8 14 mph 1006.8mb 40f
4:24pm 8 15 mph 1006.7mb 40f
4:18pm 7 13 mph 1006.6mb 40f
4:12pm 7 13 mph 1006.5mb 41f
4:06pm 7 13 mph 1006.5mb 41f
4:00pm 6 13 mph 1006.4mb 41f
3:54pm 6 11 mph 1006.4mb 41f
3:48pm 6 15 mph 1006.3mb 41f
3:42pm 7 16 mph 1006.3mb 41f
3:36pm 6 11 mph 1006.3mb 41f
3:30pm 7 13 mph - -
3:24pm 7 10 mph 1006.2mb 42f
3:18pm 5 9 mph 1006.1mb 42f
3:12pm 6 11 mph 1006.1mb 42f
3:06pm 7 11 mph 1006.1mb 42f
3:00pm 6 11 mph 1006.1mb -
2:54pm 7 13 mph 1006.1mb 42f
2:48pm 6 11 mph 1006.2mb 41f
2:42pm 6 10 mph 1006.2mb 42f
2:36pm 9 14 mph 1006.2mb 42f
2:30pm 6 13 mph 1006.1mb 41f
2:24pm 7 13 mph 1006.1mb 41f
2:18pm 10 18 mph 1006.1mb 41f
2:12pm 8 16 mph 1006.1mb 40f
2:06pm 7 14 mph 1006.2mb 40f
2:00pm 9 18 mph 1006.1mb 40f
1:54pm 7 15 mph 1006.1mb 40f
1:48pm 8 18 mph 1006.1mb 40f
1:42pm 8 15 mph 1006.1mb 41f
1:36pm 7 13 mph 1006.2mb 40f
1:30pm 6 14 mph 1006.3mb 40f
1:24pm 8 15 mph 1006.3mb 40f
1:18pm 8 14 mph 1006.3mb 39f
1:12pm 8 15 mph 1006.2mb 39f
1:06pm 8 15 mph 1006.2mb 39f
1:00pm 8 16 mph 1006.2mb 39f
12:54pm 11 18 mph 1006.2mb 38f
12:48pm 7 13 mph - -
12:42pm 10 17 mph 1006.1mb 38f
12:36pm 8 14 mph 1006.2mb 38f
12:30pm 10 17 mph 1006.2mb 38f
12:24pm 9 17 mph 1006.2mb 37f
12:18pm 10 18 mph 1006.2mb 38f
12:12pm 9 16 mph 1006.2mb 37f
12:06pm 9 17 mph 1006.2mb 37f
12:00pm 8 17 mph 1006.3mb 37f
11:54am 8 17 mph 1006.3mb 37f
11:48am 9 17 mph 1006.3mb 37f
11:42am 9 17 mph 1006.4mb 37f
11:36am 8 16 mph 1006.5mb 36f
11:30am 8 15 mph 1006.6mb 36f
11:24am 7 16 mph 1006.6mb 36f
11:18am 6 11 mph 1006.7mb 36f
11:12am 9 17 mph 1006.8mb 36f
11:06am 6 11 mph 1006.9mb 35f
11:00am 9 15 mph 1006.9mb 36f
10:54am 7 15 mph 1006.9mb 35f
10:48am 9 16 mph 1007mb 35f
10:42am 10 20 mph 1006.9mb 34f
10:36am 9 17 mph 1006.9mb 34f
10:30am 9 17 mph 1006.9mb 34f
10:24am 10 21 mph 1006.9mb 34f
10:18am 7 16 mph 1006.9mb -
10:12am 8 17 mph 1007mb 33f
10:06am 10 21 mph 1007mb 33f
10:00am 9 18 mph 1007mb 33f
9:54am 7 16 mph 1006.9mb 32f
9:48am 9 16 mph 1007mb 32f
9:42am 9 16 mph 1007mb 32f
9:36am 8 15 mph 1006.9mb 32f
9:30am 6 11 mph 1006.9mb 32f
9:24am 7 15 mph 1006.9mb 32f
9:18am 8 18 mph 1006.9mb 31f
9:12am 9 18 mph 1006.9mb 31f
9:06am 8 23 mph 1006.9mb 31f
9:00am 6 14 mph 1007mb 30f
8:54am 8 14 mph 1007mb 30f
8:48am 7 13 mph 1007mb 30f
8:42am 8 14 mph 1006.9mb 30f
8:36am 9 17 mph 1007mb 29f
8:30am 9 17 mph 1007.1mb 29f
8:24am 8 15 mph 1007.1mb 29f
8:18am 8 14 mph 1007.1mb 28f
8:12am 6 16 mph 1007.1mb 28f
8:06am 8 16 mph 1007.1mb 28f
8:00am 8 16 mph 1007.1mb 28f
7:54am 7 14 mph 1007.1mb 27f
7:48am 8 13 mph 1007.1mb 27f
7:42am 8 14 mph 1007mb 27f
7:36am 6 11 mph 1007mb 26f
7:30am 8 15 mph 1007mb 26f
7:24am 7 13 mph 1006.9mb 26f
7:18am 7 14 mph 1006.9mb 26f
7:12am 6 13 mph 1006.9mb 26f
7:06am 5 8 mph 1006.8mb 25f
7:00am 6 8 mph 1006.7mb 25f
6:54am 6 11 mph 1006.6mb 25f
6:48am 6 11 mph - -
6:42am 8 13 mph 1006.5mb 25f
6:36am 8 14 mph 1006.4mb 25f
6:30am 7 13 mph 1006.4mb 25f
6:24am 6 11 mph 1006.4mb 25f
6:18am 7 13 mph 1006.4mb 25f
6:12am 8 14 mph 1006.4mb 25f
6:06am 6 13 mph 1006.4mb 25f
6:00am 6 13 mph 1006.4mb 25f
5:54am 7 13 mph 1006.4mb 25f
5:48am 9 14 mph 1006.4mb 25f
5:42am 9 17 mph 1006.3mb 25f
5:36am 7 15 mph 1006.3mb 25f
5:30am 7 10 mph 1006.2mb 25f
5:24am 7 14 mph 1006.2mb 25f
5:18am 8 14 mph 1006.2mb 25f
5:12am 6 14 mph 1006.1mb 25f
5:06am 7 14 mph 1006.1mb 25f
5:00am 6 10 mph 1006mb 24f
4:54am 7 13 mph 1005.9mb 24f
4:48am 6 13 mph 1005.8mb 25f
4:42am 6 9 mph 1005.8mb 24f
4:36am 6 10 mph 1005.8mb 24f
4:30am 6 10 mph 1005.7mb 24f
4:24am 8 14 mph 1005.7mb 25f
4:18am 7 13 mph 1005.6mb 25f
4:12am 6 11 mph 1005.6mb 24f
4:06am 8 15 mph 1005.5mb 24f
4:00am 8 14 mph 1005.4mb 25f
3:54am 8 15 mph 1005.4mb 25f
3:48am 6 10 mph 1005.3mb 25f
3:42am 7 14 mph 1005.3mb 24f
3:36am 8 14 mph 1005.2mb 25f
3:30am 7 11 mph 1005.1mb 25f
3:24am 8 14 mph 1005mb 25f
3:18am 9 14 mph 1005mb 25f
3:12am 8 16 mph 1005.1mb 25f
3:06am 9 14 mph 1005.2mb 25f
3:00am 8 14 mph 1005.2mb 25f
2:54am 9 16 mph 1005.1mb 25f
2:48am 6 11 mph 1005.2mb 25f
2:42am 7 14 mph 1005.3mb 25f
2:36am 5 11 mph 1005.3mb 25f
2:30am 8 15 mph 1005.2mb 25f
2:24am 7 14 mph 1005.2mb 25f
2:18am 5 10 mph 1005.2mb 25f
2:12am 7 18 mph 1005.2mb 25f
2:06am 5 13 mph 1005.2mb 25f
2:00am 7 14 mph 1005.2mb 25f
1:54am 7 14 mph 1005.2mb 25f
1:48am 6 15 mph 1005.2mb 25f
1:42am 7 16 mph 1005.2mb 26f
1:36am 7 13 mph 1005.2mb 26f
1:30am 6 17 mph 1005.1mb 26f
1:24am 7 15 mph 1005.1mb 26f
1:18am 7 14 mph - -
1:12am 8 17 mph 1004.9mb 26f
1:06am 8 16 mph 1004.7mb 26f
1:00am 7 15 mph 1004.7mb 26f
12:54am 6 11 mph 1004.6mb 26f
12:48am 6 16 mph 1004.7mb 26f
12:42am 6 10 mph 1004.7mb 26f
12:36am 8 17 mph 1004.7mb 26f
12:30am 8 20 mph 1004.7mb 26f
12:24am 8 17 mph 1004.8mb 26f
12:18am 9 17 mph 1004.8mb 26f
12:12am 10 21 mph 1004.7mb 26f
12:06am 9 17 mph 1004.7mb 26f
12:00am 9 20 mph 1004.6mb 26f
Thu 02/16 11:54pm 10 20 mph 1004.5mb 26f
11:48pm 7 15 mph - -
11:42pm 9 20 mph 1004.4mb 26f
11:36pm 9 18 mph 1004.4mb 27f
11:30pm 9 17 mph 1004.3mb 27f
11:24pm 9 17 mph 1004.3mb 27f
11:18pm 9 21 mph 1004.2mb 27f
11:12pm 10 20 mph 1004.1mb 27f
11:06pm 8 15 mph 1004.1mb 27f
11:00pm 10 22 mph 1004.2mb 28f
10:54pm 10 20 mph 1004.1mb 28f
10:48pm 8 15 mph 1004mb 28f
10:42pm 8 21 mph 1004mb 28f
10:36pm 10 23 mph 1004mb 28f
10:30pm 7 14 mph 1003.9mb 28f
10:24pm 10 23 mph 1003.9mb 28f
10:18pm 8 16 mph 1003.8mb 28f
10:12pm 9 17 mph 1003.8mb 28f
10:06pm 7 16 mph 1003.8mb 28f
10:00pm 8 17 mph 1003.7mb 29f
9:54pm 7 18 mph 1003.7mb 29f
9:48pm 8 17 mph 1003.7mb 29f
9:42pm 10 21 mph 1003.6mb 29f
9:36pm 8 16 mph 1003.6mb 29f
9:30pm 9 20 mph 1003.6mb 29f
9:24pm 10 20 mph 1003.5mb 29f
9:18pm 8 17 mph 1003.4mb -
9:12pm 11 22 mph 1003.3mb 29f
9:06pm 9 20 mph 1003.3mb 29f
9:00pm 10 23 mph 1003.1mb 29f
8:54pm 8 18 mph 1003mb 30f
8:48pm 7 14 mph - -
8:42pm 10 22 mph 1002.9mb 30f
8:36pm 11 21 mph 1002.7mb 30f
8:30pm 10 22 mph 1002.7mb 30f
8:24pm 10 21 mph 1002.5mb 30f
8:18pm 9 21 mph 1002.5mb 31f
8:12pm 7 15 mph 1002.4mb 31f
8:06pm 10 20 mph 1002.4mb 31f
8:00pm 7 15 mph 1002.3mb 31f
7:54pm 9 18 mph 1002.2mb 31f
7:48pm 9 22 mph 1002.1mb 31f
7:42pm 10 20 mph 1002.1mb 31f
7:36pm 8 16 mph 1002mb 31f
7:30pm 8 17 mph 1001.9mb -
7:24pm 9 17 mph 1001.8mb 31f
7:18pm 9 17 mph 1001.7mb 31f
7:12pm 9 21 mph 1001.7mb 32f
7:06pm 10 21 mph 1001.6mb 32f
7:00pm 8 16 mph 1001.6mb -
6:54pm 6 11 mph 1001.6mb 32f
6:48pm 8 16 mph 1001.4mb 32f
6:42pm 7 16 mph 1001.3mb 32f
6:36pm 8 16 mph 1001.2mb 32f
6:30pm 11 22 mph - -
6:24pm 6 14 mph 1001mb 32f
6:18pm 9 21 mph - -
6:12pm 10 18 mph 1000.8mb 32f
6:06pm 9 20 mph 1000.6mb 32f
6:00pm 11 21 mph 1000.5mb 32f
5:54pm 11 22 mph 1000.4mb 33f
5:48pm 10 20 mph 1000.3mb -
5:42pm 11 22 mph 1000.2mb 33f
5:36pm 10 22 mph 1000mb 33f
5:30pm 10 21 mph - -
5:24pm 10 17 mph 999.7mb 33f
5:18pm 6 14 mph 999.6mb 33f
5:12pm 8 15 mph 999.5mb 34f
5:06pm 9 18 mph 999.4mb 34f
5:00pm 9 21 mph 999.2mb 34f
4:54pm 10 22 mph 999.1mb 34f
4:48pm 8 16 mph 999mb 34f
4:42pm 11 26 mph 999mb 34f
4:36pm 10 22 mph 998.8mb 34f
4:30pm 11 24 mph 998.7mb 35f
4:24pm 10 24 mph 998.7mb 35f
4:18pm 8 16 mph 998.5mb 35f
4:12pm 9 18 mph 998.4mb 35f
4:06pm 10 22 mph 998.3mb 35f
4:00pm 8 17 mph 998.2mb 35f
3:54pm 9 21 mph 998.1mb 36f
3:48pm 9 23 mph 998.1mb 36f
3:42pm 8 16 mph 998mb 36f
3:36pm 8 18 mph 997.9mb 36f
3:30pm 7 21 mph 997.9mb 36f
3:24pm 10 25 mph 997.8mb 36f
3:18pm 7 15 mph 997.8mb 36f
3:12pm 9 20 mph 997.8mb 37f
3:06pm 7 15 mph 997.6mb 37f
3:00pm 7 14 mph 997.6mb 37f
2:54pm 7 16 mph 997.5mb 37f
2:48pm 7 15 mph 997.4mb 38f
2:42pm 8 17 mph 997.4mb 38f
2:36pm 10 20 mph 997.4mb 38f
2:30pm 9 16 mph 997.3mb 38f
2:24pm 9 15 mph 997.3mb 38f
2:18pm 8 18 mph 997.2mb 37f
2:12pm 6 10 mph 997.2mb 37f
2:06pm 7 13 mph 997.1mb 37f
2:00pm 9 16 mph 997mb 37f
1:54pm 7 14 mph 997mb 37f
1:48pm 9 15 mph 997mb 38f
1:42pm 7 14 mph 997mb 38f
1:36pm 8 17 mph 997.1mb 37f
1:30pm 7 14 mph 997.1mb 37f
1:24pm 9 15 mph 997.1mb 38f
1:18pm 6 14 mph 997.1mb 37f
1:12pm 8 14 mph 997.2mb 38f
1:06pm 7 14 mph 997.2mb 38f
1:00pm 8 17 mph 997.3mb 38f
12:54pm 7 15 mph 997.3mb 38f
12:48pm 9 15 mph 997.2mb -
12:42pm 10 18 mph 997.3mb 37f
12:36pm 8 15 mph 997.2mb 37f
12:30pm 9 15 mph 997.2mb 36f
12:24pm 10 17 mph 997.2mb 36f
12:18pm 8 14 mph 997.1mb -
12:12pm 7 15 mph 997.2mb 36f
12:06pm 8 16 mph 997.2mb 36f
12:00pm 5 11 mph 997.3mb 36f
11:54am 8 16 mph 997.3mb 37f
11:48am 8 13 mph 997.3mb 37f
11:42am 9 16 mph 997.3mb 37f
11:36am 8 16 mph 997.3mb 36f
11:30am 8 15 mph 997.4mb 37f
11:24am 9 16 mph 997.4mb 38f
11:18am 8 16 mph 997.5mb 37f
11:12am 8 18 mph 997.5mb 37f
11:06am 8 15 mph 997.5mb 37f
11:00am 7 11 mph 997.5mb 36f
10:54am 7 13 mph 997.5mb 35f
10:48am 7 14 mph 997.4mb 37f
10:42am 8 15 mph 997.4mb 36f
10:36am 9 15 mph 997.3mb 36f
10:30am 10 22 mph 997.3mb 36f
10:24am 10 21 mph 997.2mb 36f
10:18am 10 20 mph 997.1mb 36f
10:12am 8 17 mph 997.1mb 36f
10:06am 7 14 mph 997mb 37f
10:00am 9 16 mph 997mb 37f
9:54am 7 15 mph 996.9mb 37f
9:48am 9 20 mph - -
9:42am 11 20 mph 996.8mb 36f
9:36am 8 20 mph 996.8mb 36f
9:30am 10 21 mph 996.8mb 36f
9:24am 8 15 mph 996.7mb 36f
9:18am 8 17 mph 996.7mb 37f
9:12am 8 18 mph 996.7mb 36f
9:06am 8 17 mph 996.7mb 36f
9:00am 8 15 mph 996.6mb 36f
8:54am 8 18 mph 996.6mb 35f
8:48am 7 16 mph 996.6mb 35f
8:42am 7 14 mph 996.5mb 34f
8:36am 10 16 mph 996.5mb 34f
8:30am 9 14 mph 996.4mb 35f
8:24am 9 18 mph 996.3mb 35f
8:18am 9 14 mph 996.3mb 35f
8:12am 7 11 mph 996.2mb 35f
8:06am 7 14 mph 996.1mb 35f
8:00am 6 10 mph 996.1mb 35f
7:54am 6 10 mph 996mb 35f
7:48am 5 9 mph - -
7:42am 6 11 mph 995.8mb 35f
7:36am 6 14 mph 995.8mb 35f
7:30am 6 15 mph 995.8mb 34f
7:24am 5 11 mph 995.7mb 34f
7:18am 8 16 mph 995.6mb 34f
7:12am 8 16 mph 995.5mb 34f
7:06am 7 14 mph 995.4mb 34f
7:00am 8 15 mph 995.3mb 33f
6:54am 8 13 mph 995.2mb 33f
6:48am 5 10 mph 995mb 33f
6:42am 6 13 mph 994.9mb 33f
6:36am 6 11 mph 994.8mb 33f
6:30am 6 11 mph 994.7mb 33f
6:24am 7 11 mph 994.6mb 33f
6:18am 7 13 mph 994.5mb 33f
6:12am 7 13 mph 994.5mb 33f
6:06am 7 13 mph 994.4mb 33f
6:00am 7 14 mph 994.4mb 33f
5:54am 7 11 mph 994.2mb 33f
5:48am 7 14 mph 994.2mb 33f
5:42am 7 16 mph 994.1mb 33f
5:36am 8 16 mph 994mb 33f
5:30am 9 16 mph 994mb 33f
5:24am 7 16 mph 993.8mb 33f
5:18am 7 14 mph 993.8mb 33f
5:12am 7 15 mph 993.7mb 33f
5:06am 6 13 mph 993.6mb 33f
5:00am 7 14 mph 993.5mb 33f
4:54am 6 13 mph 993.4mb 33f
4:48am 7 15 mph 993.4mb 33f
4:42am 7 15 mph 993.3mb 34f
4:36am 7 15 mph 993.2mb 34f
4:30am 6 11 mph 993.2mb 34f
4:24am 8 14 mph 993.1mb 34f
4:18am 8 15 mph 993mb 34f
4:12am 9 17 mph 992.9mb 34f
4:06am 7 16 mph 992.9mb 34f
4:00am 8 18 mph 992.8mb 34f
3:54am 9 16 mph 992.7mb 34f
3:48am 10 16 mph 992.6mb 34f
3:42am 9 16 mph 992.6mb 34f
3:36am 10 20 mph 992.5mb 34f
3:30am 9 16 mph 992.5mb 34f
3:24am 9 15 mph 992.4mb 34f
3:18am 10 22 mph 992.3mb 34f
3:12am 10 21 mph 992.2mb 34f
3:06am 11 21 mph 992.1mb 35f
3:00am 10 18 mph 992.1mb 35f
2:54am 10 17 mph 992mb 35f
2:48am 11 22 mph 992mb 35f
2:42am 13 21 mph 992mb 35f
2:36am 9 16 mph 991.9mb 35f
2:30am 10 18 mph 991.9mb 35f
2:24am 11 20 mph 991.9mb 35f
2:18am 11 22 mph 991.8mb 35f
2:12am 9 22 mph 991.8mb 35f
2:06am 10 20 mph 991.8mb 35f
2:00am 9 18 mph 991.7mb 35f